sensor_id;sensor_type;location;lat;lon;timestamp;P1;durP1;ratioP1;P2;durP2;ratioP2
28483;SDS011;15704;48.834;8.736;2023-03-21T00:01:02;3.03;;;1.92;;
28483;SDS011;15704;48.834;8.736;2023-03-21T00:03:30;4.03;;;1.80;;
28483;SDS011;15704;48.834;8.736;2023-03-21T00:06:03;3.03;;;2.10;;
28483;SDS011;15704;48.834;8.736;2023-03-21T00:08:34;4.22;;;1.95;;
28483;SDS011;15704;48.834;8.736;2023-03-21T00:11:02;2.33;;;1.77;;
28483;SDS011;15704;48.834;8.736;2023-03-21T00:13:31;4.50;;;1.85;;
28483;SDS011;15704;48.834;8.736;2023-03-21T00:16:06;1.67;;;1.50;;
28483;SDS011;15704;48.834;8.736;2023-03-21T00:18:47;3.72;;;1.88;;
28483;SDS011;15704;48.834;8.736;2023-03-21T00:21:18;3.33;;;2.38;;
28483;SDS011;15704;48.834;8.736;2023-03-21T00:24:07;3.80;;;2.10;;
28483;SDS011;15704;48.834;8.736;2023-03-21T00:26:34;3.70;;;2.25;;
28483;SDS011;15704;48.834;8.736;2023-03-21T00:29:01;2.88;;;2.00;;
28483;SDS011;15704;48.834;8.736;2023-03-21T00:31:28;5.57;;;1.98;;
28483;SDS011;15704;48.834;8.736;2023-03-21T00:33:57;6.82;;;2.08;;
28483;SDS011;15704;48.834;8.736;2023-03-21T00:36:24;2.72;;;1.92;;
28483;SDS011;15704;48.834;8.736;2023-03-21T00:38:52;3.30;;;1.88;;
28483;SDS011;15704;48.834;8.736;2023-03-21T00:41:19;5.15;;;1.48;;
28483;SDS011;15704;48.834;8.736;2023-03-21T00:44:06;2.30;;;1.67;;
28483;SDS011;15704;48.834;8.736;2023-03-21T00:46:32;3.47;;;1.95;;
28483;SDS011;15704;48.834;8.736;2023-03-21T00:49:10;4.63;;;1.58;;
28483;SDS011;15704;48.834;8.736;2023-03-21T00:51:37;3.70;;;1.75;;
28483;SDS011;15704;48.834;8.736;2023-03-21T00:54:04;5.60;;;1.92;;
28483;SDS011;15704;48.834;8.736;2023-03-21T00:56:31;3.10;;;1.80;;
28483;SDS011;15704;48.834;8.736;2023-03-21T00:58:58;3.72;;;1.75;;
28483;SDS011;15704;48.834;8.736;2023-03-21T01:01:24;6.78;;;1.80;;
28483;SDS011;15704;48.834;8.736;2023-03-21T01:03:57;3.33;;;1.48;;
28483;SDS011;15704;48.834;8.736;2023-03-21T01:06:35;3.25;;;1.88;;
28483;SDS011;15704;48.834;8.736;2023-03-21T01:09:06;2.38;;;1.50;;
28483;SDS011;15704;48.834;8.736;2023-03-21T01:11:37;2.33;;;1.70;;
28483;SDS011;15704;48.834;8.736;2023-03-21T01:14:04;4.05;;;1.83;;
28483;SDS011;15704;48.834;8.736;2023-03-21T01:16:48;3.38;;;1.75;;
28483;SDS011;15704;48.834;8.736;2023-03-21T01:19:19;3.28;;;1.67;;
28483;SDS011;15704;48.834;8.736;2023-03-21T01:22:07;5.90;;;1.80;;
28483;SDS011;15704;48.834;8.736;2023-03-21T01:24:34;2.58;;;1.50;;
28483;SDS011;15704;48.834;8.736;2023-03-21T01:27:08;4.18;;;1.92;;
28483;SDS011;15704;48.834;8.736;2023-03-21T01:29:35;4.18;;;1.70;;
28483;SDS011;15704;48.834;8.736;2023-03-21T01:32:02;2.67;;;1.60;;
28483;SDS011;15704;48.834;8.736;2023-03-21T01:34:29;6.85;;;1.75;;
28483;SDS011;15704;48.834;8.736;2023-03-21T01:36:56;2.42;;;1.58;;
28483;SDS011;15704;48.834;8.736;2023-03-21T01:39:23;4.10;;;1.40;;
28483;SDS011;15704;48.834;8.736;2023-03-21T01:41:50;2.83;;;1.77;;
28483;SDS011;15704;48.834;8.736;2023-03-21T01:44:17;4.20;;;2.00;;
28483;SDS011;15704;48.834;8.736;2023-03-21T01:46:45;4.40;;;1.60;;
28483;SDS011;15704;48.834;8.736;2023-03-21T01:49:33;6.35;;;1.73;;
28483;SDS011;15704;48.834;8.736;2023-03-21T01:52:05;2.88;;;1.52;;
28483;SDS011;15704;48.834;8.736;2023-03-21T01:54:42;2.30;;;1.70;;
28483;SDS011;15704;48.834;8.736;2023-03-21T01:57:15;3.17;;;1.88;;
28483;SDS011;15704;48.834;8.736;2023-03-21T02:00:08;10.60;;;1.50;;
28483;SDS011;15704;48.834;8.736;2023-03-21T02:02:38;2.17;;;1.67;;
28483;SDS011;15704;48.834;8.736;2023-03-21T02:05:18;3.38;;;1.85;;
28483;SDS011;15704;48.834;8.736;2023-03-21T02:07:47;3.83;;;1.60;;
28483;SDS011;15704;48.834;8.736;2023-03-21T02:10:17;2.83;;;1.80;;
28483;SDS011;15704;48.834;8.736;2023-03-21T02:12:45;2.25;;;1.48;;
28483;SDS011;15704;48.834;8.736;2023-03-21T02:15:11;4.55;;;1.85;;
28483;SDS011;15704;48.834;8.736;2023-03-21T02:17:42;4.40;;;1.65;;
28483;SDS011;15704;48.834;8.736;2023-03-21T02:22:53;5.50;;;1.85;;
28483;SDS011;15704;48.834;8.736;2023-03-21T02:39:20;3.90;;;2.10;;
28483;SDS011;15704;48.834;8.736;2023-03-21T02:44:43;4.07;;;2.25;;
28483;SDS011;15704;48.834;8.736;2023-03-21T02:47:27;3.80;;;1.95;;
28483;SDS011;15704;48.834;8.736;2023-03-21T02:50:02;4.55;;;2.22;;
28483;SDS011;15704;48.834;8.736;2023-03-21T02:52:49;6.95;;;2.25;;
28483;SDS011;15704;48.834;8.736;2023-03-21T02:55:21;2.92;;;2.03;;
28483;SDS011;15704;48.834;8.736;2023-03-21T02:57:51;3.85;;;2.05;;
28483;SDS011;15704;48.834;8.736;2023-03-21T03:00:23;4.20;;;2.35;;
28483;SDS011;15704;48.834;8.736;2023-03-21T03:02:52;3.10;;;2.33;;
28483;SDS011;15704;48.834;8.736;2023-03-21T03:05:35;2.63;;;2.15;;
28483;SDS011;15704;48.834;8.736;2023-03-21T03:08:10;3.78;;;2.42;;
28483;SDS011;15704;48.834;8.736;2023-03-21T03:11:28;2.83;;;2.05;;
28483;SDS011;15704;48.834;8.736;2023-03-21T03:14:02;3.83;;;2.25;;
28483;SDS011;15704;48.834;8.736;2023-03-21T03:17:13;5.97;;;2.53;;
28483;SDS011;15704;48.834;8.736;2023-03-21T03:20:09;5.43;;;2.35;;
28483;SDS011;15704;48.834;8.736;2023-03-21T03:22:55;5.70;;;2.20;;
28483;SDS011;15704;48.834;8.736;2023-03-21T03:25:51;3.33;;;2.00;;
28483;SDS011;15704;48.834;8.736;2023-03-21T03:28:48;7.30;;;2.08;;
28483;SDS011;15704;48.834;8.736;2023-03-21T03:31:20;2.38;;;2.10;;
28483;SDS011;15704;48.834;8.736;2023-03-21T03:33:56;2.75;;;1.90;;
28483;SDS011;15704;48.834;8.736;2023-03-21T03:36:33;3.13;;;1.73;;
28483;SDS011;15704;48.834;8.736;2023-03-21T03:39:05;3.40;;;2.10;;
28483;SDS011;15704;48.834;8.736;2023-03-21T03:42:12;4.07;;;2.20;;
28483;SDS011;15704;48.834;8.736;2023-03-21T03:44:51;4.47;;;1.90;;
28483;SDS011;15704;48.834;8.736;2023-03-21T03:50:01;2.78;;;1.98;;
28483;SDS011;15704;48.834;8.736;2023-03-21T03:52:45;4.85;;;1.95;;
28483;SDS011;15704;48.834;8.736;2023-03-21T03:55:25;5.35;;;3.25;;
28483;SDS011;15704;48.834;8.736;2023-03-21T03:57:53;3.17;;;1.77;;
28483;SDS011;15704;48.834;8.736;2023-03-21T04:00:20;3.65;;;2.20;;
28483;SDS011;15704;48.834;8.736;2023-03-21T04:02:47;3.60;;;2.20;;
28483;SDS011;15704;48.834;8.736;2023-03-21T04:05:14;5.05;;;1.92;;
28483;SDS011;15704;48.834;8.736;2023-03-21T04:10:16;3.53;;;2.05;;
28483;SDS011;15704;48.834;8.736;2023-03-21T04:12:46;3.00;;;1.92;;
28483;SDS011;15704;48.834;8.736;2023-03-21T04:15:18;2.80;;;1.73;;
28483;SDS011;15704;48.834;8.736;2023-03-21T04:17:45;4.70;;;1.60;;
28483;SDS011;15704;48.834;8.736;2023-03-21T04:20:12;3.13;;;1.83;;
28483;SDS011;15704;48.834;8.736;2023-03-21T04:22:55;4.13;;;2.88;;
28483;SDS011;15704;48.834;8.736;2023-03-21T04:25:22;27.02;;;13.35;;
28483;SDS011;15704;48.834;8.736;2023-03-21T04:27:58;16.00;;;9.90;;
28483;SDS011;15704;48.834;8.736;2023-03-21T04:30:25;7.78;;;5.60;;
28483;SDS011;15704;48.834;8.736;2023-03-21T04:32:51;5.72;;;2.40;;
28483;SDS011;15704;48.834;8.736;2023-03-21T04:35:26;4.75;;;2.00;;
28483;SDS011;15704;48.834;8.736;2023-03-21T04:37:53;3.10;;;1.83;;
28483;SDS011;15704;48.834;8.736;2023-03-21T04:40:21;2.35;;;1.73;;
28483;SDS011;15704;48.834;8.736;2023-03-21T04:42:48;3.13;;;1.98;;
28483;SDS011;15704;48.834;8.736;2023-03-21T04:45:14;2.88;;;2.38;;
28483;SDS011;15704;48.834;8.736;2023-03-21T04:47:42;4.55;;;2.38;;
28483;SDS011;15704;48.834;8.736;2023-03-21T04:50:09;5.32;;;1.88;;
28483;SDS011;15704;48.834;8.736;2023-03-21T04:52:38;6.18;;;2.20;;
28483;SDS011;15704;48.834;8.736;2023-03-21T04:55:05;2.65;;;1.75;;
28483;SDS011;15704;48.834;8.736;2023-03-21T04:57:38;4.45;;;1.90;;
28483;SDS011;15704;48.834;8.736;2023-03-21T05:00:05;7.70;;;3.30;;
28483;SDS011;15704;48.834;8.736;2023-03-21T05:02:35;6.05;;;3.03;;
28483;SDS011;15704;48.834;8.736;2023-03-21T05:05:03;4.35;;;2.45;;
28483;SDS011;15704;48.834;8.736;2023-03-21T05:07:30;5.05;;;1.92;;
28483;SDS011;15704;48.834;8.736;2023-03-21T05:09:57;5.97;;;2.35;;
28483;SDS011;15704;48.834;8.736;2023-03-21T05:12:27;2.47;;;1.60;;
28483;SDS011;15704;48.834;8.736;2023-03-21T05:14:54;5.43;;;2.03;;
28483;SDS011;15704;48.834;8.736;2023-03-21T05:17:20;3.30;;;2.05;;
28483;SDS011;15704;48.834;8.736;2023-03-21T05:19:50;2.88;;;1.77;;
28483;SDS011;15704;48.834;8.736;2023-03-21T05:22:18;5.97;;;2.13;;
28483;SDS011;15704;48.834;8.736;2023-03-21T05:24:45;3.72;;;2.10;;
28483;SDS011;15704;48.834;8.736;2023-03-21T05:27:16;3.33;;;1.90;;
28483;SDS011;15704;48.834;8.736;2023-03-21T05:30:01;3.45;;;1.95;;
28483;SDS011;15704;48.834;8.736;2023-03-21T05:32:39;8.98;;;2.20;;
28483;SDS011;15704;48.834;8.736;2023-03-21T05:35:06;4.50;;;2.05;;
28483;SDS011;15704;48.834;8.736;2023-03-21T05:37:34;7.28;;;2.33;;
28483;SDS011;15704;48.834;8.736;2023-03-21T05:40:01;7.85;;;2.42;;
28483;SDS011;15704;48.834;8.736;2023-03-21T05:42:31;4.10;;;2.85;;
28483;SDS011;15704;48.834;8.736;2023-03-21T05:44:58;4.70;;;3.28;;
28483;SDS011;15704;48.834;8.736;2023-03-21T05:47:28;7.90;;;4.20;;
28483;SDS011;15704;48.834;8.736;2023-03-21T05:49:55;7.57;;;3.80;;
28483;SDS011;15704;48.834;8.736;2023-03-21T05:52:22;6.80;;;2.85;;
28483;SDS011;15704;48.834;8.736;2023-03-21T05:54:49;5.68;;;2.63;;
28483;SDS011;15704;48.834;8.736;2023-03-21T05:57:16;14.05;;;2.67;;
28483;SDS011;15704;48.834;8.736;2023-03-21T05:59:44;3.63;;;2.60;;
28483;SDS011;15704;48.834;8.736;2023-03-21T06:02:11;6.25;;;2.70;;
28483;SDS011;15704;48.834;8.736;2023-03-21T06:04:38;3.70;;;2.10;;
28483;SDS011;15704;48.834;8.736;2023-03-21T06:07:04;6.93;;;2.20;;
28483;SDS011;15704;48.834;8.736;2023-03-21T06:09:31;4.30;;;2.60;;
28483;SDS011;15704;48.834;8.736;2023-03-21T06:11:59;2.22;;;1.90;;
28483;SDS011;15704;48.834;8.736;2023-03-21T06:14:26;5.32;;;1.90;;
28483;SDS011;15704;48.834;8.736;2023-03-21T06:16:53;4.35;;;1.88;;
28483;SDS011;15704;48.834;8.736;2023-03-21T06:19:19;6.60;;;2.08;;
28483;SDS011;15704;48.834;8.736;2023-03-21T06:21:47;2.78;;;2.00;;
28483;SDS011;15704;48.834;8.736;2023-03-21T06:24:14;6.88;;;1.83;;
28483;SDS011;15704;48.834;8.736;2023-03-21T06:26:43;4.05;;;2.10;;
28483;SDS011;15704;48.834;8.736;2023-03-21T06:29:10;5.57;;;1.73;;
28483;SDS011;15704;48.834;8.736;2023-03-21T06:31:37;3.72;;;1.98;;
28483;SDS011;15704;48.834;8.736;2023-03-21T06:34:04;3.97;;;1.75;;
28483;SDS011;15704;48.834;8.736;2023-03-21T06:36:31;4.15;;;1.80;;
28483;SDS011;15704;48.834;8.736;2023-03-21T06:38:58;2.88;;;1.58;;
28483;SDS011;15704;48.834;8.736;2023-03-21T06:41:25;3.92;;;1.80;;
28483;SDS011;15704;48.834;8.736;2023-03-21T06:43:52;6.28;;;1.90;;
28483;SDS011;15704;48.834;8.736;2023-03-21T06:46:19;5.88;;;2.10;;
28483;SDS011;15704;48.834;8.736;2023-03-21T06:48:45;3.83;;;1.70;;
28483;SDS011;15704;48.834;8.736;2023-03-21T06:51:12;3.65;;;1.75;;
28483;SDS011;15704;48.834;8.736;2023-03-21T06:53:40;4.38;;;1.88;;
28483;SDS011;15704;48.834;8.736;2023-03-21T06:56:08;8.68;;;1.77;;
28483;SDS011;15704;48.834;8.736;2023-03-21T06:58:36;5.88;;;2.25;;
28483;SDS011;15704;48.834;8.736;2023-03-21T07:01:03;2.03;;;1.60;;
28483;SDS011;15704;48.834;8.736;2023-03-21T07:03:31;11.07;;;2.13;;
28483;SDS011;15704;48.834;8.736;2023-03-21T07:06:03;2.65;;;1.60;;
28483;SDS011;15704;48.834;8.736;2023-03-21T07:08:32;6.13;;;2.22;;
28483;SDS011;15704;48.834;8.736;2023-03-21T07:10:59;8.50;;;2.22;;
28483;SDS011;15704;48.834;8.736;2023-03-21T07:13:25;2.55;;;1.83;;
28483;SDS011;15704;48.834;8.736;2023-03-21T07:15:52;3.25;;;1.75;;
28483;SDS011;15704;48.834;8.736;2023-03-21T07:18:19;4.22;;;3.15;;
28483;SDS011;15704;48.834;8.736;2023-03-21T07:20:46;3.00;;;1.73;;
28483;SDS011;15704;48.834;8.736;2023-03-21T07:23:20;5.03;;;1.60;;
28483;SDS011;15704;48.834;8.736;2023-03-21T07:25:48;4.38;;;1.80;;
28483;SDS011;15704;48.834;8.736;2023-03-21T07:28:16;2.08;;;1.35;;
28483;SDS011;15704;48.834;8.736;2023-03-21T07:30:44;5.03;;;1.80;;
28483;SDS011;15704;48.834;8.736;2023-03-21T07:33:16;2.85;;;1.35;;
28483;SDS011;15704;48.834;8.736;2023-03-21T07:35:43;3.63;;;1.50;;
28483;SDS011;15704;48.834;8.736;2023-03-21T07:38:10;2.80;;;1.80;;
28483;SDS011;15704;48.834;8.736;2023-03-21T07:40:37;4.60;;;1.60;;
28483;SDS011;15704;48.834;8.736;2023-03-21T07:43:04;3.75;;;1.63;;
28483;SDS011;15704;48.834;8.736;2023-03-21T07:45:31;3.20;;;1.88;;
28483;SDS011;15704;48.834;8.736;2023-03-21T07:47:57;3.50;;;2.20;;
28483;SDS011;15704;48.834;8.736;2023-03-21T07:50:24;4.93;;;1.25;;
28483;SDS011;15704;48.834;8.736;2023-03-21T07:52:51;3.58;;;1.50;;
28483;SDS011;15704;48.834;8.736;2023-03-21T07:55:18;3.85;;;1.90;;
28483;SDS011;15704;48.834;8.736;2023-03-21T07:57:44;5.88;;;1.52;;
28483;SDS011;15704;48.834;8.736;2023-03-21T08:00:14;6.13;;;1.80;;
28483;SDS011;15704;48.834;8.736;2023-03-21T08:02:49;4.95;;;1.98;;
28483;SDS011;15704;48.834;8.736;2023-03-21T08:05:25;5.28;;;2.67;;
28483;SDS011;15704;48.834;8.736;2023-03-21T08:07:58;3.17;;;1.60;;
28483;SDS011;15704;48.834;8.736;2023-03-21T08:10:25;3.88;;;1.40;;
28483;SDS011;15704;48.834;8.736;2023-03-21T08:12:53;2.78;;;1.30;;
28483;SDS011;15704;48.834;8.736;2023-03-21T08:15:19;4.53;;;1.55;;
28483;SDS011;15704;48.834;8.736;2023-03-21T08:17:46;3.33;;;1.60;;
28483;SDS011;15704;48.834;8.736;2023-03-21T08:20:14;8.15;;;2.05;;
28483;SDS011;15704;48.834;8.736;2023-03-21T08:22:43;6.32;;;1.92;;
28483;SDS011;15704;48.834;8.736;2023-03-21T08:25:11;1.85;;;1.30;;
28483;SDS011;15704;48.834;8.736;2023-03-21T08:27:40;4.95;;;1.65;;
28483;SDS011;15704;48.834;8.736;2023-03-21T08:30:08;1.95;;;1.30;;
28483;SDS011;15704;48.834;8.736;2023-03-21T08:32:37;2.70;;;1.58;;
28483;SDS011;15704;48.834;8.736;2023-03-21T08:35:08;4.88;;;1.30;;
28483;SDS011;15704;48.834;8.736;2023-03-21T08:40:06;2.60;;;1.48;;
28483;SDS011;15704;48.834;8.736;2023-03-21T08:42:41;2.90;;;1.20;;
28483;SDS011;15704;48.834;8.736;2023-03-21T08:45:10;5.30;;;1.20;;
28483;SDS011;15704;48.834;8.736;2023-03-21T08:47:38;3.38;;;1.60;;
28483;SDS011;15704;48.834;8.736;2023-03-21T08:50:06;1.98;;;1.50;;
28483;SDS011;15704;48.834;8.736;2023-03-21T08:52:34;3.30;;;1.25;;
28483;SDS011;15704;48.834;8.736;2023-03-21T08:55:00;3.05;;;1.60;;
28483;SDS011;15704;48.834;8.736;2023-03-21T08:57:28;2.70;;;1.58;;
28483;SDS011;15704;48.834;8.736;2023-03-21T08:59:55;1.63;;;1.42;;
28483;SDS011;15704;48.834;8.736;2023-03-21T09:02:22;3.90;;;1.17;;
28483;SDS011;15704;48.834;8.736;2023-03-21T09:04:49;1.70;;;1.15;;
28483;SDS011;15704;48.834;8.736;2023-03-21T09:07:18;4.68;;;1.63;;
28483;SDS011;15704;48.834;8.736;2023-03-21T09:09:45;2.20;;;1.23;;
28483;SDS011;15704;48.834;8.736;2023-03-21T09:12:23;4.40;;;1.30;;
28483;SDS011;15704;48.834;8.736;2023-03-21T09:14:50;7.03;;;1.42;;
28483;SDS011;15704;48.834;8.736;2023-03-21T09:17:18;2.13;;;1.38;;
28483;SDS011;15704;48.834;8.736;2023-03-21T09:19:46;9.00;;;1.30;;
28483;SDS011;15704;48.834;8.736;2023-03-21T09:22:15;4.90;;;1.17;;
28483;SDS011;15704;48.834;8.736;2023-03-21T09:24:46;1.48;;;0.98;;
28483;SDS011;15704;48.834;8.736;2023-03-21T09:27:17;1.98;;;1.15;;
28483;SDS011;15704;48.834;8.736;2023-03-21T09:29:48;1.83;;;1.10;;
28483;SDS011;15704;48.834;8.736;2023-03-21T09:32:15;3.45;;;1.75;;
28483;SDS011;15704;48.834;8.736;2023-03-21T09:34:43;1.88;;;1.10;;
28483;SDS011;15704;48.834;8.736;2023-03-21T09:37:11;4.40;;;1.25;;
28483;SDS011;15704;48.834;8.736;2023-03-21T09:39:41;3.58;;;1.15;;
28483;SDS011;15704;48.834;8.736;2023-03-21T09:42:16;1.20;;;0.93;;
28483;SDS011;15704;48.834;8.736;2023-03-21T09:47:45;2.28;;;0.90;;
28483;SDS011;15704;48.834;8.736;2023-03-21T09:50:25;2.20;;;1.23;;
28483;SDS011;15704;48.834;8.736;2023-03-21T09:52:59;1.73;;;0.90;;
28483;SDS011;15704;48.834;8.736;2023-03-21T10:00:51;6.75;;;1.30;;
28483;SDS011;15704;48.834;8.736;2023-03-21T10:03:48;2.05;;;1.25;;
28483;SDS011;15704;48.834;8.736;2023-03-21T10:06:19;2.05;;;1.20;;
28483;SDS011;15704;48.834;8.736;2023-03-21T10:08:54;2.08;;;1.38;;
28483;SDS011;15704;48.834;8.736;2023-03-21T10:11:27;2.80;;;1.10;;
28483;SDS011;15704;48.834;8.736;2023-03-21T10:13:58;1.95;;;1.05;;
28483;SDS011;15704;48.834;8.736;2023-03-21T10:16:31;3.22;;;1.35;;
28483;SDS011;15704;48.834;8.736;2023-03-21T10:19:06;3.28;;;1.00;;
28483;SDS011;15704;48.834;8.736;2023-03-21T10:21:41;3.50;;;1.85;;
28483;SDS011;15704;48.834;8.736;2023-03-21T10:24:30;1.05;;;0.90;;
28483;SDS011;15704;48.834;8.736;2023-03-21T10:26:58;3.70;;;1.33;;
28483;SDS011;15704;48.834;8.736;2023-03-21T10:29:29;3.75;;;1.65;;
28483;SDS011;15704;48.834;8.736;2023-03-21T10:32:14;3.67;;;1.40;;
28483;SDS011;15704;48.834;8.736;2023-03-21T10:34:44;1.65;;;1.20;;
28483;SDS011;15704;48.834;8.736;2023-03-21T10:37:15;3.95;;;1.13;;
28483;SDS011;15704;48.834;8.736;2023-03-21T10:39:43;3.28;;;1.08;;
28483;SDS011;15704;48.834;8.736;2023-03-21T10:42:19;2.05;;;1.25;;
28483;SDS011;15704;48.834;8.736;2023-03-21T10:44:51;2.47;;;0.93;;
28483;SDS011;15704;48.834;8.736;2023-03-21T10:47:20;1.15;;;1.00;;
28483;SDS011;15704;48.834;8.736;2023-03-21T10:49:49;4.63;;;1.20;;
28483;SDS011;15704;48.834;8.736;2023-03-21T10:52:34;3.25;;;1.27;;
28483;SDS011;15704;48.834;8.736;2023-03-21T10:57:54;2.92;;;1.40;;
28483;SDS011;15704;48.834;8.736;2023-03-21T11:00:26;2.15;;;1.13;;
28483;SDS011;15704;48.834;8.736;2023-03-21T11:02:55;4.05;;;1.60;;
28483;SDS011;15704;48.834;8.736;2023-03-21T11:05:24;3.72;;;1.73;;
28483;SDS011;15704;48.834;8.736;2023-03-21T11:08:04;4.43;;;1.40;;
28483;SDS011;15704;48.834;8.736;2023-03-21T11:10:37;6.60;;;1.58;;
28483;SDS011;15704;48.834;8.736;2023-03-21T11:13:17;7.10;;;1.50;;
28483;SDS011;15704;48.834;8.736;2023-03-21T11:15:55;3.50;;;1.38;;
28483;SDS011;15704;48.834;8.736;2023-03-21T11:18:29;5.15;;;1.88;;
28483;SDS011;15704;48.834;8.736;2023-03-21T11:21:04;5.68;;;1.60;;
28483;SDS011;15704;48.834;8.736;2023-03-21T11:23:33;2.42;;;1.52;;
28483;SDS011;15704;48.834;8.736;2023-03-21T11:26:07;7.53;;;1.93;;
28483;SDS011;15704;48.834;8.736;2023-03-21T11:28:42;5.00;;;2.00;;
28483;SDS011;15704;48.834;8.736;2023-03-21T11:31:11;4.93;;;1.90;;
28483;SDS011;15704;48.834;8.736;2023-03-21T11:33:40;7.28;;;2.33;;
28483;SDS011;15704;48.834;8.736;2023-03-21T11:38:47;4.47;;;2.00;;
28483;SDS011;15704;48.834;8.736;2023-03-21T11:41:24;5.43;;;2.08;;
28483;SDS011;15704;48.834;8.736;2023-03-21T11:43:59;7.15;;;1.80;;
28483;SDS011;15704;48.834;8.736;2023-03-21T11:46:27;6.22;;;2.08;;
28483;SDS011;15704;48.834;8.736;2023-03-21T11:48:57;3.22;;;1.42;;
28483;SDS011;15704;48.834;8.736;2023-03-21T11:54:14;4.90;;;1.75;;
28483;SDS011;15704;48.834;8.736;2023-03-21T11:56:50;7.07;;;1.75;;
28483;SDS011;15704;48.834;8.736;2023-03-21T12:02:19;5.18;;;1.70;;
28483;SDS011;15704;48.834;8.736;2023-03-21T12:15:42;3.50;;;1.98;;
28483;SDS011;15704;48.834;8.736;2023-03-21T12:21:22;10.23;;;1.83;;
28483;SDS011;15704;48.834;8.736;2023-03-21T12:29:33;3.95;;;1.63;;
28483;SDS011;15704;48.834;8.736;2023-03-21T12:32:16;3.72;;;1.55;;
28483;SDS011;15704;48.834;8.736;2023-03-21T12:38:05;3.47;;;1.42;;
28483;SDS011;15704;48.834;8.736;2023-03-21T12:48:49;2.47;;;1.40;;
28483;SDS011;15704;48.834;8.736;2023-03-21T12:51:22;7.60;;;2.17;;
28483;SDS011;15704;48.834;8.736;2023-03-21T12:56:38;6.22;;;1.65;;
28483;SDS011;15704;48.834;8.736;2023-03-21T13:05:43;3.60;;;1.50;;
28483;SDS011;15704;48.834;8.736;2023-03-21T13:10:44;5.95;;;1.75;;
28483;SDS011;15704;48.834;8.736;2023-03-21T13:15:49;14.10;;;6.85;;
28483;SDS011;15704;48.834;8.736;2023-03-21T13:29:50;9.30;;;2.10;;
28483;SDS011;15704;48.834;8.736;2023-03-21T13:32:32;3.08;;;1.70;;
28483;SDS011;15704;48.834;8.736;2023-03-21T13:35:18;4.85;;;1.83;;
28483;SDS011;15704;48.834;8.736;2023-03-21T13:37:49;3.75;;;1.92;;
28483;SDS011;15704;48.834;8.736;2023-03-21T13:40:33;3.25;;;1.70;;
28483;SDS011;15704;48.834;8.736;2023-03-21T13:43:01;3.90;;;2.05;;
28483;SDS011;15704;48.834;8.736;2023-03-21T13:45:37;5.07;;;2.00;;
28483;SDS011;15704;48.834;8.736;2023-03-21T13:48:30;4.93;;;2.05;;
28483;SDS011;15704;48.834;8.736;2023-03-21T13:51:16;6.05;;;3.92;;
28483;SDS011;15704;48.834;8.736;2023-03-21T14:00:12;3.30;;;2.03;;
28483;SDS011;15704;48.834;8.736;2023-03-21T14:04:52;9.25;;;2.55;;
28483;SDS011;15704;48.834;8.736;2023-03-21T14:10:00;6.45;;;1.95;;
28483;SDS011;15704;48.834;8.736;2023-03-21T14:12:39;5.40;;;2.25;;
28483;SDS011;15704;48.834;8.736;2023-03-21T14:15:22;3.92;;;1.90;;
28483;SDS011;15704;48.834;8.736;2023-03-21T14:17:53;5.05;;;2.28;;
28483;SDS011;15704;48.834;8.736;2023-03-21T14:20:27;5.00;;;2.33;;
28483;SDS011;15704;48.834;8.736;2023-03-21T14:22:58;5.95;;;2.10;;
28483;SDS011;15704;48.834;8.736;2023-03-21T14:25:31;6.68;;;2.15;;
28483;SDS011;15704;48.834;8.736;2023-03-21T14:28:13;6.70;;;2.25;;
28483;SDS011;15704;48.834;8.736;2023-03-21T14:30:49;7.32;;;2.08;;
28483;SDS011;15704;48.834;8.736;2023-03-21T14:33:21;3.58;;;1.80;;
28483;SDS011;15704;48.834;8.736;2023-03-21T14:35:57;6.43;;;2.20;;
28483;SDS011;15704;48.834;8.736;2023-03-21T14:38:31;4.35;;;1.90;;
28483;SDS011;15704;48.834;8.736;2023-03-21T14:41:02;4.60;;;1.90;;
28483;SDS011;15704;48.834;8.736;2023-03-21T14:43:29;3.63;;;1.83;;
28483;SDS011;15704;48.834;8.736;2023-03-21T14:45:59;5.05;;;2.10;;
28483;SDS011;15704;48.834;8.736;2023-03-21T14:48:30;9.32;;;2.67;;
28483;SDS011;15704;48.834;8.736;2023-03-21T14:53:30;7.55;;;1.58;;
28483;SDS011;15704;48.834;8.736;2023-03-21T14:58:31;9.82;;;1.77;;
28483;SDS011;15704;48.834;8.736;2023-03-21T15:01:02;6.00;;;1.73;;
28483;SDS011;15704;48.834;8.736;2023-03-21T15:03:31;8.23;;;1.45;;
28483;SDS011;15704;48.834;8.736;2023-03-21T15:05:59;5.30;;;1.55;;
28483;SDS011;15704;48.834;8.736;2023-03-21T15:08:27;4.55;;;2.33;;
28483;SDS011;15704;48.834;8.736;2023-03-21T15:10:55;3.85;;;1.80;;
28483;SDS011;15704;48.834;8.736;2023-03-21T15:16:05;3.00;;;1.48;;
28483;SDS011;15704;48.834;8.736;2023-03-21T15:18:33;3.25;;;1.40;;
28483;SDS011;15704;48.834;8.736;2023-03-21T15:21:04;6.60;;;1.77;;
28483;SDS011;15704;48.834;8.736;2023-03-21T15:26:04;2.63;;;1.85;;
28483;SDS011;15704;48.834;8.736;2023-03-21T15:28:32;4.68;;;1.80;;
28483;SDS011;15704;48.834;8.736;2023-03-21T15:31:00;3.25;;;1.50;;
28483;SDS011;15704;48.834;8.736;2023-03-21T15:33:27;5.25;;;1.52;;
28483;SDS011;15704;48.834;8.736;2023-03-21T15:35:57;4.18;;;1.88;;
28483;SDS011;15704;48.834;8.736;2023-03-21T15:43:41;2.40;;;1.25;;
28483;SDS011;15704;48.834;8.736;2023-03-21T15:46:15;2.88;;;1.20;;
28483;SDS011;15704;48.834;8.736;2023-03-21T15:49:06;2.08;;;1.42;;
28483;SDS011;15704;48.834;8.736;2023-03-21T15:51:35;3.75;;;1.95;;
28483;SDS011;15704;48.834;8.736;2023-03-21T15:54:03;5.63;;;1.52;;
28483;SDS011;15704;48.834;8.736;2023-03-21T15:56:33;6.03;;;2.00;;
28483;SDS011;15704;48.834;8.736;2023-03-21T15:59:01;3.53;;;1.70;;
28483;SDS011;15704;48.834;8.736;2023-03-21T16:01:31;2.75;;;1.55;;
28483;SDS011;15704;48.834;8.736;2023-03-21T16:04:08;2.35;;;1.30;;
28483;SDS011;15704;48.834;8.736;2023-03-21T16:06:36;10.93;;;1.60;;
28483;SDS011;15704;48.834;8.736;2023-03-21T16:11:38;3.20;;;1.30;;
28483;SDS011;15704;48.834;8.736;2023-03-21T16:14:09;1.92;;;1.27;;
28483;SDS011;15704;48.834;8.736;2023-03-21T16:16:35;3.85;;;1.15;;
28483;SDS011;15704;48.834;8.736;2023-03-21T16:19:03;2.70;;;1.15;;
28483;SDS011;15704;48.834;8.736;2023-03-21T16:21:32;4.15;;;1.10;;
28483;SDS011;15704;48.834;8.736;2023-03-21T16:23:59;9.95;;;1.13;;
28483;SDS011;15704;48.834;8.736;2023-03-21T16:26:31;2.15;;;1.40;;
28483;SDS011;15704;48.834;8.736;2023-03-21T16:28:59;1.50;;;1.10;;
28483;SDS011;15704;48.834;8.736;2023-03-21T16:31:27;6.07;;;1.65;;
28483;SDS011;15704;48.834;8.736;2023-03-21T16:33:55;3.13;;;1.33;;
28483;SDS011;15704;48.834;8.736;2023-03-21T16:36:23;3.58;;;1.33;;
28483;SDS011;15704;48.834;8.736;2023-03-21T16:38:52;3.03;;;1.48;;
28483;SDS011;15704;48.834;8.736;2023-03-21T16:41:20;4.60;;;1.50;;
28483;SDS011;15704;48.834;8.736;2023-03-21T16:43:49;3.95;;;2.03;;
28483;SDS011;15704;48.834;8.736;2023-03-21T16:46:18;10.00;;;2.65;;
28483;SDS011;15704;48.834;8.736;2023-03-21T16:48:50;2.97;;;2.13;;
28483;SDS011;15704;48.834;8.736;2023-03-21T16:51:23;2.85;;;1.95;;
28483;SDS011;15704;48.834;8.736;2023-03-21T16:53:55;3.83;;;1.55;;
28483;SDS011;15704;48.834;8.736;2023-03-21T16:56:26;1.70;;;1.30;;
28483;SDS011;15704;48.834;8.736;2023-03-21T16:58:56;4.70;;;2.70;;
28483;SDS011;15704;48.834;8.736;2023-03-21T17:01:23;7.40;;;3.35;;
28483;SDS011;15704;48.834;8.736;2023-03-21T17:03:55;10.43;;;6.57;;
28483;SDS011;15704;48.834;8.736;2023-03-21T17:06:26;11.10;;;4.75;;
28483;SDS011;15704;48.834;8.736;2023-03-21T17:08:55;3.05;;;2.05;;
28483;SDS011;15704;48.834;8.736;2023-03-21T17:11:24;2.80;;;1.33;;
28483;SDS011;15704;48.834;8.736;2023-03-21T17:13:53;4.90;;;1.50;;
28483;SDS011;15704;48.834;8.736;2023-03-21T17:16:21;4.47;;;1.77;;
28483;SDS011;15704;48.834;8.736;2023-03-21T17:18:53;1.45;;;1.05;;
28483;SDS011;15704;48.834;8.736;2023-03-21T17:21:21;3.20;;;1.20;;
28483;SDS011;15704;48.834;8.736;2023-03-21T17:23:53;2.97;;;1.40;;
28483;SDS011;15704;48.834;8.736;2023-03-21T17:26:22;2.20;;;1.17;;